createdAt,value
2019-05-16T00:00:24.261Z,96913.27
2019-05-16T00:01:29.997Z,96911.64
2019-05-16T00:02:33.935Z,96909.43
2019-05-16T00:03:38.454Z,96910.16
2019-05-16T00:04:42.190Z,96907.67
2019-05-16T00:05:51.416Z,96907.67
2019-05-16T00:06:52.142Z,96902.79
2019-05-16T00:07:59.028Z,96906.70
2019-05-16T00:09:01.998Z,96907.79
2019-05-16T00:10:08.360Z,96910.30
2019-05-16T00:11:12.806Z,96911.89
2019-05-16T00:12:18.418Z,96909.76
2019-05-16T00:13:22.648Z,96907.46
2019-05-16T00:14:28.169Z,96907.55
2019-05-16T00:15:31.848Z,96911.22
2019-05-16T00:16:37.992Z,96905.81
2019-05-16T00:17:41.894Z,96905.12
2019-05-16T00:18:47.926Z,96905.52
2019-05-16T00:19:51.441Z,96897.02
2019-05-16T00:20:55.658Z,96899.93
2019-05-16T00:21:59.294Z,96898.94
2019-05-16T00:23:03.532Z,96902.20
2019-05-16T00:24:08.254Z,96901.58
2019-05-16T00:25:13.346Z,96903.34
2019-05-16T00:26:19.481Z,96905.20
2019-05-16T00:27:22.906Z,96901.92
2019-05-16T00:28:28.637Z,96901.20
2019-05-16T00:29:32.503Z,96899.06
2019-05-16T00:30:36.160Z,96897.53
2019-05-16T00:31:40.350Z,96894.83
2019-05-16T00:32:44.291Z,96890.56
2019-05-16T00:33:48.876Z,96886.08
2019-05-16T00:34:52.567Z,96879.67
2019-05-16T00:36:03.376Z,96872.79
2019-05-16T00:37:02.112Z,96862.07
2019-05-16T00:38:08.674Z,96862.07
2019-05-16T00:39:12.114Z,96859.10
2019-05-16T00:40:18.585Z,96854.34
2019-05-16T00:41:21.682Z,96854.23
2019-05-16T00:42:25.897Z,96854.09
2019-05-16T00:43:29.528Z,96856.25
2019-05-16T00:44:33.749Z,96866.75
2019-05-16T00:45:38.573Z,96865.11
2019-05-16T00:46:42.854Z,96867.73
2019-05-16T00:47:48.024Z,96867.00
2019-05-16T00:48:52.724Z,96873.53
2019-05-16T00:49:58.233Z,96880.94
2019-05-16T00:51:03.246Z,96879.59
2019-05-16T00:52:07.793Z,96878.16
2019-05-16T00:53:12.092Z,96887.69
2019-05-16T00:54:15.634Z,96888.05
2019-05-16T00:55:19.866Z,96889.91
2019-05-16T00:56:24.014Z,96880.75
2019-05-16T00:57:28.690Z,96882.58
2019-05-16T00:58:34.133Z,96881.61
2019-05-16T00:59:39.123Z,96881.45
2019-05-16T01:00:50.324Z,96880.66
2019-05-16T01:01:54.756Z,96880.67
2019-05-16T01:02:58.250Z,96880.52
2019-05-16T01:04:08.018Z,96882.30
2019-05-16T01:05:14.392Z,96880.52
2019-05-16T01:06:22.680Z,96889.27
2019-05-16T01:07:23.386Z,96888.55
2019-05-16T01:08:28.273Z,96879.27
2019-05-16T01:09:32.454Z,96884.69
2019-05-16T01:10:38.912Z,96882.44
2019-05-16T01:11:42.118Z,96884.69
2019-05-16T01:12:48.049Z,96883.34
2019-05-16T01:13:51.980Z,96884.63
2019-05-16T01:14:58.287Z,96884.84
2019-05-16T01:16:01.558Z,96882.84
2019-05-16T01:17:05.807Z,96887.95
2019-05-16T01:18:09.467Z,96888.27
2019-05-16T01:19:14.782Z,96872.71
2019-05-16T01:20:19.197Z,96887.39
2019-05-16T01:21:24.061Z,96890.53
2019-05-16T01:22:28.986Z,96886.77
2019-05-16T01:23:33.683Z,96891.44
2019-05-16T01:24:41.182Z,96886.48
2019-05-16T01:25:43.276Z,96887.80
2019-05-16T01:26:48.453Z,96884.34
2019-05-16T01:27:52.946Z,96882.41
2019-05-16T01:28:57.698Z,96880.30
2019-05-16T01:30:02.052Z,96880.30
2019-05-16T01:31:05.693Z,96868.79
2019-05-16T01:32:09.914Z,96866.00
2019-05-16T01:33:13.580Z,96854.02
2019-05-16T01:34:18.167Z,96857.84
2019-05-16T01:35:21.918Z,96849.81
2019-05-16T01:36:36.785Z,96849.81
2019-05-16T01:37:31.879Z,96861.48
2019-05-16T01:38:36.090Z,96861.95
2019-05-16T01:39:40.036Z,96866.38
2019-05-16T01:40:44.231Z,96870.27
2019-05-16T01:41:48.148Z,96873.97
2019-05-16T01:42:52.549Z,96861.89
2019-05-16T01:43:58.375Z,96862.77
2019-05-16T01:45:02.155Z,96857.94
2019-05-16T01:46:08.265Z,96855.88
2019-05-16T01:47:11.777Z,96847.63
2019-05-16T01:48:15.428Z,96847.63
2019-05-16T01:49:19.613Z,96849.28
2019-05-16T01:50:23.273Z,96854.17
2019-05-16T01:51:28.788Z,96856.03
2019-05-16T01:52:32.632Z,96861.61
2019-05-16T01:53:39.022Z,96866.53
2019-05-16T01:54:42.149Z,96861.05
2019-05-16T01:55:48.606Z,96871.84
2019-05-16T01:56:52.183Z,96874.75
2019-05-16T01:57:58.435Z,96876.45
2019-05-16T01:59:01.723Z,96876.45
2019-05-16T02:00:08.400Z,96883.34
2019-05-16T02:01:15.762Z,96883.34
2019-05-16T02:02:18.902Z,96870.42
2019-05-16T02:03:22.649Z,96876.09
2019-05-16T02:04:28.740Z,96876.88
2019-05-16T02:05:32.858Z,96874.91
2019-05-16T02:06:48.479Z,96870.42
2019-05-16T02:07:42.447Z,96875.37
2019-05-16T02:08:48.747Z,96875.37
2019-05-16T02:09:52.377Z,96871.42
2019-05-16T02:10:58.369Z,96865.31
2019-05-16T02:12:01.924Z,96873.63
2019-05-16T02:13:08.339Z,96857.50
2019-05-16T02:14:11.473Z,96862.05
2019-05-16T02:15:18.046Z,96861.48
2019-05-16T02:16:21.436Z,96853.61
2019-05-16T02:17:25.851Z,96856.88
2019-05-16T02:18:29.545Z,96860.20
2019-05-16T02:19:33.748Z,96859.79
2019-05-16T02:20:39.217Z,96858.94
2019-05-16T02:21:43.309Z,96858.94
2019-05-16T02:22:48.256Z,96843.23
2019-05-16T02:23:52.621Z,96852.41
2019-05-16T02:24:58.363Z,96851.41
2019-05-16T02:26:02.178Z,96849.84
2019-05-16T02:27:05.835Z,96838.34
2019-05-16T02:28:10.025Z,96838.34
2019-05-16T02:29:13.909Z,96852.48
2019-05-16T02:30:21.511Z,96837.49
2019-05-16T02:31:23.539Z,96840.26
2019-05-16T02:32:31.109Z,96843.61
2019-05-16T02:33:33.182Z,96839.75
2019-05-16T02:34:37.421Z,96839.75
2019-05-16T02:35:41.056Z,96844.52
2019-05-16T02:36:45.249Z,96834.23
2019-05-16T02:37:54.750Z,96836.09
2019-05-16T02:38:55.839Z,96838.75
2019-05-16T02:40:01.218Z,96840.66
2019-05-16T02:41:05.600Z,96838.34
2019-05-16T02:42:11.856Z,96839.59
2019-05-16T02:43:15.263Z,96840.53
2019-05-16T02:44:20.926Z,96838.91
2019-05-16T02:45:25.233Z,96840.59
2019-05-16T02:46:30.806Z,96839.81
2019-05-16T02:47:35.274Z,96847.69
2019-05-16T02:48:41.020Z,96846.27
2019-05-16T02:49:44.932Z,96846.22
2019-05-16T02:50:51.218Z,96840.32
2019-05-16T02:51:54.555Z,96839.34
2019-05-16T02:53:01.287Z,96837.00
2019-05-16T02:54:03.889Z,96834.42
2019-05-16T02:55:11.301Z,96833.73
2019-05-16T02:56:13.797Z,96834.73
2019-05-16T02:57:20.954Z,96834.73
2019-05-16T02:58:23.871Z,96831.95
2019-05-16T02:59:30.595Z,96831.89
2019-05-16T03:00:42.713Z,96824.02
2019-05-16T03:01:44.599Z,96825.55
2019-05-16T03:02:50.493Z,96836.71
2019-05-16T03:03:54.335Z,96830.41
2019-05-16T03:05:00.935Z,96833.30
2019-05-16T03:06:04.372Z,96830.25
2019-05-16T03:07:13.357Z,96819.03
2019-05-16T03:08:14.566Z,96823.86
2019-05-16T03:09:21.372Z,96832.66
2019-05-16T03:10:26.007Z,96833.95
2019-05-16T03:11:31.422Z,96833.88
2019-05-16T03:12:37.568Z,96832.53
2019-05-16T03:13:43.646Z,96830.97
2019-05-16T03:14:50.422Z,96847.50
2019-05-16T03:15:55.609Z,96833.23
2019-05-16T03:17:03.164Z,96833.23
2019-05-16T03:18:07.405Z,96828.84
2019-05-16T03:19:12.821Z,96827.90
2019-05-16T03:20:16.995Z,96828.55
2019-05-16T03:21:24.097Z,96826.65
2019-05-16T03:22:31.591Z,96826.65
2019-05-16T03:23:35.537Z,96832.23
2019-05-16T03:24:42.057Z,96828.91
2019-05-16T03:25:45.421Z,96828.91
2019-05-16T03:26:51.451Z,96832.95
2019-05-16T03:27:55.191Z,96833.39
2019-05-16T03:29:00.923Z,96831.04
2019-05-16T03:30:05.728Z,96832.04
2019-05-16T03:31:14.921Z,96836.93
2019-05-16T03:32:15.368Z,96833.11
2019-05-16T03:33:25.958Z,96823.80
2019-05-16T03:34:26.384Z,96830.13
2019-05-16T03:35:34.096Z,96836.36
2019-05-16T03:36:36.421Z,96833.88
2019-05-16T03:37:51.528Z,96826.08
2019-05-16T03:38:46.111Z,96830.03
2019-05-16T03:39:51.484Z,96825.98
2019-05-16T03:40:55.221Z,96823.37
2019-05-16T03:42:01.085Z,96831.66
2019-05-16T03:43:04.919Z,96830.53
2019-05-16T03:44:11.279Z,96829.11
2019-05-16T03:45:14.541Z,96832.59
2019-05-16T03:46:21.509Z,96834.16
2019-05-16T03:47:24.109Z,96833.75
2019-05-16T03:48:31.278Z,96834.30
2019-05-16T03:49:33.777Z,96833.60
2019-05-16T03:50:41.052Z,96840.42
2019-05-16T03:51:43.778Z,96839.84
2019-05-16T03:52:50.872Z,96839.84
2019-05-16T03:53:53.683Z,96840.98
2019-05-16T03:55:01.389Z,96833.67
2019-05-16T03:56:03.659Z,96832.88
2019-05-16T03:57:11.364Z,96837.65
2019-05-16T03:58:13.245Z,96836.58
2019-05-16T03:59:17.435Z,96828.75
2019-05-16T04:00:24.306Z,96833.64
2019-05-16T04:01:31.283Z,96838.53
2019-05-16T04:02:33.848Z,96839.74
2019-05-16T04:03:40.993Z,96838.78
2019-05-16T04:04:43.434Z,96839.63
2019-05-16T04:05:47.746Z,96829.47
2019-05-16T04:06:51.428Z,96850.76
2019-05-16T04:08:10.385Z,96843.45
2019-05-16T04:09:01.842Z,96843.45
2019-05-16T04:10:10.892Z,96847.78
2019-05-16T04:11:13.650Z,96848.13
2019-05-16T04:12:21.134Z,96846.00
2019-05-16T04:13:23.443Z,96831.95
2019-05-16T04:14:30.700Z,96831.95
2019-05-16T04:15:33.074Z,96848.56
2019-05-16T04:16:37.265Z,96849.31
2019-05-16T04:17:41.515Z,96847.11
2019-05-16T04:18:45.831Z,96851.92
2019-05-16T04:19:50.874Z,96852.25
2019-05-16T04:20:55.255Z,96844.91
2019-05-16T04:22:01.369Z,96856.56
2019-05-16T04:23:04.879Z,96852.52
2019-05-16T04:24:12.041Z,96847.58
2019-05-16T04:25:14.597Z,96845.97
2019-05-16T04:26:21.390Z,96848.93
2019-05-16T04:27:24.339Z,96853.02
2019-05-16T04:28:31.358Z,96853.13
2019-05-16T04:29:34.102Z,96860.05
2019-05-16T04:30:37.745Z,96855.15
2019-05-16T04:31:42.041Z,96852.38
2019-05-16T04:32:45.798Z,96849.22
2019-05-16T04:33:51.645Z,96851.23
2019-05-16T04:34:55.883Z,96855.30
2019-05-16T04:36:01.188Z,96849.58
2019-05-16T04:37:05.228Z,96856.80
2019-05-16T04:38:31.874Z,96859.79
2019-05-16T04:39:24.649Z,96854.89
2019-05-16T04:40:31.157Z,96855.52
2019-05-16T04:41:34.618Z,96857.31
2019-05-16T04:42:41.625Z,96861.06
2019-05-16T04:43:44.261Z,96860.39
2019-05-16T04:44:51.289Z,96864.53
2019-05-16T04:45:53.844Z,96865.17
2019-05-16T04:47:01.745Z,96861.92
2019-05-16T04:48:10.977Z,96863.56
2019-05-16T04:49:13.793Z,96861.77
2019-05-16T04:50:20.804Z,96859.23
2019-05-16T04:51:23.729Z,96863.56
2019-05-16T04:52:27.355Z,96858.22
2019-05-16T04:53:32.529Z,96854.89
2019-05-16T04:54:36.178Z,96863.86
2019-05-16T04:55:41.991Z,96867.23
2019-05-16T04:56:46.287Z,96859.56
2019-05-16T04:57:51.298Z,96863.71
2019-05-16T04:58:54.987Z,96865.31
2019-05-16T05:00:02.393Z,96869.72
2019-05-16T05:01:04.568Z,96863.80
2019-05-16T05:02:11.938Z,96866.22
2019-05-16T05:03:14.154Z,96866.48
2019-05-16T05:04:20.930Z,96868.47
2019-05-16T05:05:23.620Z,96864.38
2019-05-16T05:06:31.019Z,96863.81
2019-05-16T05:07:33.311Z,96863.03
2019-05-16T05:08:52.896Z,96864.60
2019-05-16T05:09:42.860Z,96859.16
2019-05-16T05:10:47.463Z,96868.61
2019-05-16T05:11:52.125Z,96859.81
2019-05-16T05:12:56.518Z,96862.61
2019-05-16T05:14:00.937Z,96860.98
2019-05-16T05:15:10.845Z,96860.27
2019-05-16T05:16:12.841Z,96859.26
2019-05-16T05:17:17.031Z,96857.12
2019-05-16T05:18:21.498Z,96861.37
2019-05-16T05:19:25.985Z,96859.34
2019-05-16T05:20:30.468Z,96857.06
2019-05-16T05:21:34.750Z,96859.85
2019-05-16T05:22:39.779Z,96863.45
2019-05-16T05:23:44.758Z,96868.81
2019-05-16T05:24:50.590Z,96868.81
2019-05-16T05:25:55.306Z,96874.89
2019-05-16T05:26:59.803Z,96872.63
2019-05-16T05:28:10.047Z,96869.94
2019-05-16T05:29:14.175Z,96869.94
2019-05-16T05:30:19.919Z,96870.95
2019-05-16T05:31:25.793Z,96870.16
2019-05-16T05:32:30.767Z,96869.94
2019-05-16T05:33:34.461Z,96872.66
2019-05-16T05:34:39.853Z,96872.55
2019-05-16T05:35:43.669Z,96873.62
2019-05-16T05:36:47.867Z,96874.25
2019-05-16T05:37:51.502Z,96876.38
2019-05-16T05:39:07.925Z,96876.38
2019-05-16T05:40:01.129Z,96867.59
2019-05-16T05:41:05.629Z,96865.88
2019-05-16T05:42:10.507Z,96876.69
2019-05-16T05:43:14.941Z,96880.05
2019-05-16T05:44:20.351Z,96883.78
2019-05-16T05:45:24.733Z,96882.34
2019-05-16T05:46:31.407Z,96880.87
2019-05-16T05:47:34.283Z,96880.87
2019-05-16T05:48:40.863Z,96888.61
2019-05-16T05:49:44.625Z,96882.34
2019-05-16T05:50:50.692Z,96880.67
2019-05-16T05:51:54.243Z,96876.89
2019-05-16T05:52:57.891Z,96870.78
2019-05-16T05:54:02.145Z,96861.06
2019-05-16T05:55:06.810Z,96870.08
2019-05-16T05:56:11.508Z,96871.42
2019-05-16T05:57:24.495Z,96870.34
2019-05-16T05:58:31.068Z,96871.78
2019-05-16T05:59:35.018Z,96868.14
2019-05-16T06:00:40.565Z,96877.75
2019-05-16T06:01:44.376Z,96868.37
2019-05-16T06:02:50.876Z,96873.15
2019-05-16T06:03:53.990Z,96874.56
2019-05-16T06:04:59.753Z,96870.22
2019-05-16T06:06:03.561Z,96868.80
2019-05-16T06:07:10.009Z,96874.59
2019-05-16T06:08:13.109Z,96877.45
2019-05-16T06:09:26.410Z,96879.76
2019-05-16T06:10:22.791Z,96879.76
2019-05-16T06:11:27.063Z,96876.03
2019-05-16T06:12:31.840Z,96877.16
2019-05-16T06:13:36.021Z,96877.47
2019-05-16T06:14:43.491Z,96880.55
2019-05-16T06:15:51.132Z,96876.86
2019-05-16T06:16:55.305Z,96872.95
2019-05-16T06:18:00.971Z,96875.04
2019-05-16T06:19:04.614Z,96869.64
2019-05-16T06:20:14.817Z,96876.30
2019-05-16T06:21:20.286Z,96878.18
2019-05-16T06:22:24.747Z,96877.35
2019-05-16T06:23:30.804Z,96874.17
2019-05-16T06:24:36.345Z,96880.88
2019-05-16T06:25:40.537Z,96872.65
2019-05-16T06:26:44.935Z,96867.56
2019-05-16T06:27:51.153Z,96858.27
2019-05-16T06:28:54.989Z,96860.05
2019-05-16T06:30:00.551Z,96859.05
2019-05-16T06:31:04.550Z,96860.48
2019-05-16T06:32:10.176Z,96864.83
2019-05-16T06:33:14.131Z,96868.75
2019-05-16T06:34:17.845Z,96864.20
2019-05-16T06:35:24.121Z,96863.70
2019-05-16T06:36:27.514Z,96871.50
2019-05-16T06:37:31.702Z,96865.09
2019-05-16T06:38:35.488Z,96864.28
2019-05-16T06:39:45.043Z,96868.55
2019-05-16T06:40:45.459Z,96867.41
2019-05-16T06:41:50.962Z,96865.95
2019-05-16T06:42:54.869Z,96867.13
2019-05-16T06:43:59.908Z,96868.76
2019-05-16T06:45:04.511Z,96870.57
2019-05-16T06:46:10.832Z,96870.14
2019-05-16T06:47:19.684Z,96866.28
2019-05-16T06:48:21.225Z,96864.99
2019-05-16T06:49:25.528Z,96864.47
2019-05-16T06:50:29.851Z,96867.16
2019-05-16T06:51:33.587Z,96865.55
2019-05-16T06:52:37.633Z,96864.03
2019-05-16T06:53:41.258Z,96859.12
2019-05-16T06:54:50.393Z,96860.41
2019-05-16T06:55:53.891Z,96860.77
2019-05-16T06:57:00.185Z,96857.26
2019-05-16T06:58:03.505Z,96859.52
2019-05-16T06:59:10.184Z,96847.89
2019-05-16T07:00:13.654Z,96853.54
2019-05-16T07:01:20.644Z,96852.39
2019-05-16T07:02:30.646Z,96843.89
2019-05-16T07:03:31.559Z,96851.93
2019-05-16T07:04:35.600Z,96854.48
2019-05-16T07:05:40.611Z,96854.11
2019-05-16T07:06:55.940Z,96853.16
2019-05-16T07:07:50.887Z,96850.25
2019-05-16T07:08:54.723Z,96855.30
2019-05-16T07:10:04.194Z,96860.70
2019-05-16T07:11:04.329Z,96853.08
2019-05-16T07:12:10.487Z,96860.23
2019-05-16T07:13:14.115Z,96855.63
2019-05-16T07:14:22.514Z,96854.63
2019-05-16T07:15:23.801Z,96848.79
2019-05-16T07:16:29.954Z,96853.23
2019-05-16T07:17:33.520Z,96855.58
2019-05-16T07:18:40.237Z,96850.09
2019-05-16T07:19:43.095Z,96847.58
2019-05-16T07:20:47.277Z,96850.25
2019-05-16T07:21:50.997Z,96848.31
2019-05-16T07:22:55.226Z,96845.61
2019-05-16T07:24:00.121Z,96849.32
2019-05-16T07:25:07.377Z,96846.23
2019-05-16T07:26:11.242Z,96841.75
2019-05-16T07:27:16.446Z,96838.04
2019-05-16T07:28:21.115Z,96832.33
2019-05-16T07:29:25.804Z,96826.72
2019-05-16T07:30:30.357Z,96831.05
2019-05-16T07:31:35.111Z,96828.49
2019-05-16T07:32:40.530Z,96830.89
2019-05-16T07:33:44.953Z,96828.77
2019-05-16T07:34:49.836Z,96834.45
2019-05-16T07:35:54.230Z,96826.39
2019-05-16T07:37:00.331Z,96827.06
2019-05-16T07:38:03.845Z,96821.25
2019-05-16T07:39:07.500Z,96818.73
2019-05-16T07:40:19.014Z,96815.81
2019-05-16T07:41:17.250Z,96813.30
2019-05-16T07:42:21.453Z,96815.84
2019-05-16T07:43:25.140Z,96815.27
2019-05-16T07:44:30.984Z,96816.97
2019-05-16T07:45:37.647Z,96824.55
2019-05-16T07:46:44.521Z,96828.82
2019-05-16T07:47:46.374Z,96829.34
2019-05-16T07:48:51.820Z,96826.19
2019-05-16T07:49:55.908Z,96835.38
2019-05-16T07:51:00.582Z,96830.36
2019-05-16T07:52:04.422Z,96841.05
2019-05-16T07:53:10.565Z,96839.48
2019-05-16T07:54:14.419Z,96838.13
2019-05-16T07:55:20.900Z,96837.92
2019-05-16T07:56:24.001Z,96831.65
2019-05-16T07:57:30.509Z,96831.85
2019-05-16T07:58:33.620Z,96833.85
2019-05-16T07:59:40.444Z,96829.80
2019-05-16T08:00:52.709Z,96830.04
2019-05-16T08:01:53.693Z,96825.56
2019-05-16T08:02:55.139Z,96830.81
2019-05-16T08:04:00.099Z,96838.39
2019-05-16T08:05:04.265Z,96834.30
2019-05-16T08:06:10.896Z,96826.36
2019-05-16T08:07:13.835Z,96824.42
2019-05-16T08:08:23.285Z,96824.83
2019-05-16T08:09:23.427Z,96821.32
2019-05-16T08:10:37.883Z,96818.94
2019-05-16T08:11:33.064Z,96820.13
2019-05-16T08:12:37.234Z,96819.09
2019-05-16T08:13:40.891Z,96822.00
2019-05-16T08:14:45.528Z,96825.09
2019-05-16T08:15:50.415Z,96825.93
2019-05-16T08:16:55.055Z,96823.27
2019-05-16T08:18:03.168Z,96830.25
2019-05-16T08:19:04.627Z,96826.34
2019-05-16T08:20:10.785Z,96827.87
2019-05-16T08:21:16.950Z,96826.12
2019-05-16T08:22:22.190Z,96818.19
2019-05-16T08:23:26.001Z,96817.42
2019-05-16T08:24:30.594Z,96819.93
2019-05-16T08:25:37.271Z,96822.45
2019-05-16T08:26:43.204Z,96825.17
2019-05-16T08:27:46.833Z,96825.38
2019-05-16T08:28:50.748Z,96822.27
2019-05-16T08:29:55.061Z,96831.16
2019-05-16T08:31:00.936Z,96829.42
2019-05-16T08:32:05.059Z,96826.91
2019-05-16T08:33:13.226Z,96832.55
2019-05-16T08:34:14.820Z,96829.25
2019-05-16T08:35:21.007Z,96829.46
2019-05-16T08:36:24.496Z,96831.02
2019-05-16T08:38:34.080Z,96833.55
2019-05-16T08:39:37.703Z,96832.59
2019-05-16T08:41:51.616Z,96835.69
2019-05-16T08:42:54.058Z,96829.05
2019-05-16T08:44:01.146Z,96833.53
2019-05-16T08:45:04.676Z,96830.03
2019-05-16T08:46:11.715Z,96828.65
2019-05-16T08:47:14.344Z,96835.61
2019-05-16T08:48:22.401Z,96837.56
2019-05-16T08:49:24.247Z,96833.67
2019-05-16T08:50:08.653Z,96825.97
2019-05-16T08:50:28.214Z,96828.78
2019-05-16T08:51:33.799Z,96834.79
2019-05-16T08:52:37.553Z,96830.91
2019-05-16T08:54:47.140Z,96826.81
2019-05-16T08:55:51.326Z,96828.56
2019-05-16T08:57:02.419Z,96825.83
2019-05-16T08:58:03.239Z,96828.33
2019-05-16T08:59:06.871Z,96817.56
2019-05-16T09:00:14.791Z,96825.56
2019-05-16T09:01:21.486Z,96823.47
2019-05-16T09:03:32.048Z,96826.15
2019-05-16T09:04:34.846Z,96829.30
2019-05-16T09:05:42.621Z,96832.93
2019-05-16T09:06:45.090Z,96834.53
2019-05-16T09:07:48.784Z,96833.52
2019-05-16T09:08:52.984Z,96830.80
2019-05-16T09:10:00.183Z,96829.61
2019-05-16T09:10:30.562Z,96833.58
2019-05-16T09:10:30.921Z,96821.42
2019-05-16T09:10:35.823Z,96834.53
2019-05-16T09:11:26.305Z,96835.77
2019-05-16T09:12:08.017Z,96837.29
2019-05-16T09:13:12.203Z,96838.19
2019-05-16T09:14:17.177Z,96840.92
2019-05-16T09:15:22.670Z,96841.77
2019-05-16T09:16:27.556Z,96841.80
2019-05-16T09:17:31.957Z,96837.62
2019-05-16T09:18:41.300Z,96844.10
2019-05-16T09:19:41.921Z,96842.41
2019-05-16T09:20:45.575Z,96843.42
2019-05-16T09:21:49.791Z,96842.54
2019-05-16T09:22:53.454Z,96847.64
2019-05-16T09:23:57.967Z,96848.48
2019-05-16T09:25:01.927Z,96852.77
2019-05-16T09:26:07.321Z,96851.41
2019-05-16T09:27:17.101Z,96846.14
2019-05-16T09:28:18.216Z,96843.38
2019-05-16T09:29:21.859Z,96847.44
2019-05-16T09:30:27.534Z,96847.23
2019-05-16T09:31:31.542Z,96842.58
2019-05-16T09:32:36.978Z,96853.11
2019-05-16T09:33:41.108Z,96846.14
2019-05-16T09:34:47.903Z,96858.78
2019-05-16T09:35:50.792Z,96854.13
2019-05-16T09:37:00.451Z,96846.17
2019-05-16T09:38:00.560Z,96845.20
2019-05-16T09:39:08.376Z,96850.85
2019-05-16T09:40:12.768Z,96853.00
2019-05-16T09:41:17.181Z,96846.58
2019-05-16T09:42:21.252Z,96852.20
2019-05-16T09:43:28.070Z,96854.92
2019-05-16T09:44:30.910Z,96854.33
2019-05-16T09:45:37.863Z,96856.67
2019-05-16T09:46:40.509Z,96852.75
2019-05-16T09:47:44.748Z,96849.66
2019-05-16T09:48:48.444Z,96848.88
2019-05-16T09:49:53.035Z,96852.95
2019-05-16T09:50:58.330Z,96850.44
2019-05-16T09:52:02.613Z,96856.25
2019-05-16T09:53:07.257Z,96857.05
2019-05-16T09:54:11.985Z,96856.27
2019-05-16T09:55:17.543Z,96858.03
2019-05-16T09:56:22.009Z,96850.28
2019-05-16T09:57:27.772Z,96857.03
2019-05-16T09:58:31.606Z,96849.61
2019-05-16T09:59:37.085Z,96847.97
2019-05-16T10:00:41.571Z,96844.71
2019-05-16T10:01:47.502Z,96849.62
2019-05-16T10:02:50.964Z,96846.37
2019-05-16T10:03:54.636Z,96849.72
2019-05-16T10:04:58.903Z,96845.06
2019-05-16T10:06:02.590Z,96847.05
2019-05-16T10:07:06.862Z,96848.90
2019-05-16T10:08:10.581Z,96841.30
2019-05-16T10:09:17.525Z,96838.52
2019-05-16T10:10:21.415Z,96831.31
2019-05-16T10:11:31.108Z,96831.31
2019-05-16T10:12:31.156Z,96824.23
2019-05-16T10:13:37.663Z,96833.13
2019-05-16T10:14:40.811Z,96832.77
2019-05-16T10:15:47.257Z,96831.78
2019-05-16T10:16:50.352Z,96829.52
2019-05-16T10:17:57.350Z,96831.91
2019-05-16T10:18:59.919Z,96836.73
2019-05-16T10:20:07.615Z,96834.17
2019-05-16T10:21:09.820Z,96830.60
2019-05-16T10:22:16.869Z,96833.73
2019-05-16T10:23:19.396Z,96830.79
2019-05-16T10:24:23.579Z,96828.77
2019-05-16T10:25:27.919Z,96839.41
2019-05-16T10:26:32.239Z,96836.30
2019-05-16T10:27:36.922Z,96836.78
2019-05-16T10:28:41.169Z,96841.11
2019-05-16T10:29:48.102Z,96838.42
2019-05-16T10:30:51.341Z,96842.45
2019-05-16T10:31:56.873Z,96842.14
2019-05-16T10:33:01.365Z,96839.82
2019-05-16T10:34:07.673Z,96841.45
2019-05-16T10:35:11.756Z,96846.70
2019-05-16T10:36:17.315Z,96847.66
2019-05-16T10:37:21.620Z,96842.05
2019-05-16T10:38:28.573Z,96841.09
2019-05-16T10:39:31.500Z,96838.84
2019-05-16T10:40:36.958Z,96836.80
2019-05-16T10:41:41.327Z,96836.58
2019-05-16T10:42:47.150Z,96830.29
2019-05-16T10:43:50.885Z,96836.13
2019-05-16T10:44:57.474Z,96838.69
2019-05-16T10:46:00.475Z,96831.59
2019-05-16T10:47:04.149Z,96840.55
2019-05-16T10:48:08.735Z,96840.80
2019-05-16T10:49:12.375Z,96833.47
2019-05-16T10:50:16.841Z,96833.34
2019-05-16T10:51:23.764Z,96834.62
2019-05-16T10:52:27.096Z,96836.72
2019-05-16T10:53:58.027Z,96834.05
2019-05-16T10:54:37.256Z,96835.45
2019-05-16T10:55:41.014Z,96832.52
2019-05-16T10:56:46.680Z,96831.53
2019-05-16T10:57:50.827Z,96826.89
2019-05-16T10:59:25.952Z,96830.69
2019-05-16T11:00:09.307Z,96826.27
2019-05-16T11:01:22.371Z,96826.52
2019-05-16T11:02:11.996Z,96826.33
2019-05-16T11:03:17.117Z,96822.55
2019-05-16T11:04:29.159Z,96824.16
2019-05-16T11:05:33.047Z,96826.97
2019-05-16T11:06:32.184Z,96828.84
2019-05-16T11:07:37.064Z,96819.67
2019-05-16T11:08:40.917Z,96823.20
2019-05-16T11:09:55.681Z,96826.44
2019-05-16T11:10:50.855Z,96827.73
2019-05-16T11:11:57.104Z,96824.83
2019-05-16T11:13:00.821Z,96828.00
2019-05-16T11:14:09.064Z,96830.19
2019-05-16T11:15:11.825Z,96827.02
2019-05-16T11:16:17.444Z,96828.14
2019-05-16T11:17:21.241Z,96832.17
2019-05-16T11:18:27.289Z,96832.22
2019-05-16T11:19:30.824Z,96830.86
2019-05-16T11:20:37.185Z,96834.23
2019-05-16T11:21:40.390Z,96825.33
2019-05-16T11:22:47.542Z,96827.66
2019-05-16T11:23:49.994Z,96826.36
2019-05-16T11:24:56.463Z,96829.03
2019-05-16T11:25:59.498Z,96822.97
2019-05-16T11:27:03.677Z,96820.22
2019-05-16T11:28:07.550Z,96819.83
2019-05-16T11:29:11.824Z,96823.69
2019-05-16T11:30:18.212Z,96824.52
2019-05-16T11:31:22.605Z,96821.80
2019-05-16T11:32:27.013Z,96824.58
2019-05-16T11:33:31.502Z,96825.97
2019-05-16T11:34:37.255Z,96818.19
2019-05-16T11:35:41.113Z,96816.77
2019-05-16T11:36:44.734Z,96814.16
2019-05-16T11:37:48.980Z,96813.05
2019-05-16T11:38:52.648Z,96810.67
2019-05-16T11:39:57.151Z,96813.95
2019-05-16T11:41:00.882Z,96814.53
2019-05-16T11:42:07.732Z,96814.42
2019-05-16T11:43:17.673Z,96806.30
2019-05-16T11:44:17.654Z,96807.48
2019-05-16T11:45:22.981Z,96800.61
2019-05-16T11:46:28.122Z,96796.95
2019-05-16T11:47:32.069Z,96800.47
2019-05-16T11:48:37.669Z,96795.83
2019-05-16T11:49:41.577Z,96796.62
2019-05-16T11:50:47.935Z,96797.05
2019-05-16T11:51:51.565Z,96805.61
2019-05-16T11:52:56.962Z,96802.80
2019-05-16T11:54:00.647Z,96799.71
2019-05-16T11:55:09.881Z,96803.75
2019-05-16T11:56:13.567Z,96806.29
2019-05-16T11:57:18.056Z,96802.83
2019-05-16T11:58:21.764Z,96795.53
2019-05-16T11:59:26.355Z,96801.02
2019-05-16T12:00:30.765Z,96797.69
2019-05-16T12:01:36.973Z,96795.73
2019-05-16T12:02:42.839Z,96797.56
2019-05-16T12:03:46.953Z,96793.62
2019-05-16T12:04:50.686Z,96791.55
2019-05-16T12:05:57.727Z,96791.39
2019-05-16T12:07:00.295Z,96783.95
2019-05-16T12:08:07.350Z,96781.52
2019-05-16T12:09:09.901Z,96786.45
2019-05-16T12:10:16.404Z,96786.50
2019-05-16T12:11:21.777Z,96787.86
2019-05-16T12:12:27.166Z,96782.30
2019-05-16T12:13:32.926Z,96781.30
2019-05-16T12:14:37.325Z,96776.80
2019-05-16T12:15:40.961Z,96770.95
2019-05-16T12:16:47.229Z,96773.25
2019-05-16T12:18:00.837Z,96767.84
2019-05-16T12:18:57.153Z,96772.13
2019-05-16T12:20:01.066Z,96761.34
2019-05-16T12:21:07.305Z,96765.92
2019-05-16T12:22:12.235Z,96758.38
2019-05-16T12:23:17.301Z,96759.06
2019-05-16T12:24:33.442Z,96762.90
2019-05-16T12:25:27.377Z,96751.20
2019-05-16T12:26:33.048Z,96742.91
2019-05-16T12:27:42.284Z,96744.97
2019-05-16T12:28:43.026Z,96740.84
2019-05-16T12:29:54.178Z,96744.95
2019-05-16T12:30:52.616Z,96740.75
2019-05-16T12:32:02.374Z,96748.66
2019-05-16T12:33:02.299Z,96746.42
2019-05-16T12:34:10.332Z,96747.80
2019-05-16T12:35:14.349Z,96745.27
2019-05-16T12:36:19.859Z,96743.03
2019-05-16T12:37:23.684Z,96743.03
2019-05-16T12:38:28.604Z,96741.48
2019-05-16T12:39:32.332Z,96742.71
2019-05-16T12:40:37.571Z,96735.17
2019-05-16T12:41:41.881Z,96743.35